Time;durP1;ratioP1;P1;durP2;ratioP2;P2;SDS_P1;SDS_P2;PMS_P1;PMS_P2;Temp;Humidity;BMP_temperature;BMP_pressure;BME280_temperature;BME280_humidity;BME280_pressure;Samples;Min_cycle;Max_cycle;Signal;HPM_P1;HPM_P2
2024/01/31 00:00:25;;;;;;;19.23;11.80;;;;;;;7.83;62.99;98240.38;4991277;28;20058;-82
2024/01/31 00:02:52;;;;;;;16.52;10.68;;;;;;;7.84;63.14;98242.00;4991273;28;20134;-82
2024/01/31 00:05:20;;;;;;;16.77;10.55;;;;;;;7.87;63.17;98240.13;4991065;28;20059;-81
2024/01/31 00:07:48;;;;;;;18.00;11.85;;;;;;;7.86;63.14;98238.47;4990657;28;20110;-81
2024/01/31 00:10:16;;;;;;;15.77;9.98;;;;;;;7.87;63.44;98232.31;4991882;28;20053;-82
2024/01/31 00:12:45;;;;;;;14.38;9.63;;;;;;;7.88;63.44;98232.22;4990731;28;20053;-82
2024/01/31 00:15:13;;;;;;;16.05;9.45;;;;;;;7.90;63.19;98229.50;4991086;28;20047;-82
2024/01/31 00:17:41;;;;;;;13.45;9.93;;;;;;;7.90;63.28;98239.88;4991049;28;20081;-81
2024/01/31 00:20:09;;;;;;;13.93;10.20;;;;;;;7.92;63.16;98232.78;4991418;28;20106;-81
2024/01/31 00:22:36;;;;;;;15.52;9.65;;;;;;;7.92;63.33;98232.78;4991098;28;20054;-82
2024/01/31 00:25:05;;;;;;;13.25;9.35;;;;;;;7.93;63.42;98239.63;4990923;28;20062;-81
2024/01/31 00:27:33;;;;;;;13.85;10.00;;;;;;;7.94;63.96;98230.91;4991501;28;20051;-82
2024/01/31 00:30:03;;;;;;;17.85;11.43;;;;;;;7.96;64.05;98228.97;4991368;28;20046;-82
2024/01/31 00:32:31;;;;;;;16.02;10.60;;;;;;;7.99;64.55;98233.94;4991436;28;20082;-82
2024/01/31 00:34:59;;;;;;;18.88;12.10;;;;;;;8.01;64.13;98232.03;4991250;28;20049;-82
2024/01/31 00:37:26;;;;;;;20.75;13.82;;;;;;;8.00;63.67;98230.38;4991246;28;20090;-80
2024/01/31 00:39:54;;;;;;;20.85;12.65;;;;;;;7.99;64.79;98232.16;4990513;28;20047;-81
2024/01/31 00:42:22;;;;;;;18.73;12.68;;;;;;;8.02;64.11;98229.31;4990429;28;20299;-82
2024/01/31 00:44:51;;;;;;;20.75;13.63;;;;;;;8.01;64.16;98230.25;4988841;28;20055;-82
2024/01/31 00:47:20;;;;;;;20.88;13.52;;;;;;;8.01;63.80;98225.06;4989119;28;20081;-82
2024/01/31 00:49:47;;;;;;;23.77;14.27;;;;;;;7.99;63.95;98224.34;4989088;28;20053;-82
2024/01/31 00:52:16;;;;;;;18.65;13.00;;;;;;;7.98;64.02;98227.91;4989289;28;20504;-82
2024/01/31 00:54:44;;;;;;;19.10;12.75;;;;;;;8.00;64.67;98235.56;4989589;28;20055;-82
2024/01/31 00:57:14;;;;;;;18.75;13.15;;;;;;;8.02;64.46;98236.28;4989154;28;20103;-81
2024/01/31 00:59:43;;;;;;;18.45;13.15;;;;;;;8.03;64.64;98233.56;4989447;28;20054;-82
2024/01/31 01:02:11;;;;;;;21.98;12.93;;;;;;;8.04;64.06;98239.56;4989344;28;20071;-81
2024/01/31 01:04:40;;;;;;;16.73;11.95;;;;;;;8.06;64.94;98242.88;4992784;28;20085;-81
2024/01/31 01:07:08;;;;;;;17.27;13.02;;;;;;;8.10;65.44;98241.69;4988850;28;20078;-82
2024/01/31 01:09:36;;;;;;;18.17;12.00;;;;;;;8.14;65.11;98237.06;4988956;28;20051;-82
2024/01/31 01:12:03;;;;;;;20.33;12.30;;;;;;;8.16;65.18;98232.56;4990212;28;20051;-82
2024/01/31 01:14:31;;;;;;;16.58;12.05;;;;;;;8.17;65.05;98226.41;4990743;28;20113;-82
2024/01/31 01:16:59;;;;;;;17.15;12.75;;;;;;;8.17;65.32;98237.63;4991214;28;20432;-81
2024/01/31 01:19:26;;;;;;;18.48;12.60;;;;;;;8.18;65.29;98236.69;4991008;28;20061;-81
2024/01/31 01:21:56;;;;;;;15.57;11.65;;;;;;;8.21;65.44;98243.41;4989465;28;20047;-82
2024/01/31 01:24:24;;;;;;;19.33;12.27;;;;;;;8.21;64.40;98238.19;4988715;28;20130;-82
2024/01/31 01:26:52;;;;;;;15.10;11.85;;;;;;;8.18;64.28;98238.47;4990831;28;20047;-82
2024/01/31 01:29:20;;;;;;;17.17;12.20;;;;;;;8.16;64.05;98241.19;4993610;28;20110;-82
2024/01/31 01:31:47;;;;;;;23.60;12.70;;;;;;;8.14;63.76;98242.25;4993314;28;20081;-82
2024/01/31 01:34:15;;;;;;;16.45;11.85;;;;;;;8.09;63.90;98244.38;4992839;28;20042;-82
2024/01/31 01:36:43;;;;;;;16.98;11.95;;;;;;;8.05;63.61;98249.03;4993267;28;20095;-82
2024/01/31 01:39:12;;;;;;;17.52;12.25;;;;;;;8.03;64.22;98250.94;4993044;28;20058;-82
2024/01/31 01:41:40;;;;;;;16.58;11.45;;;;;;;8.04;64.58;98242.16;4993169;28;20055;-82
2024/01/31 01:44:08;;;;;;;19.75;11.32;;;;;;;8.08;65.30;98242.75;4991358;28;20077;-81
2024/01/31 01:46:37;;;;;;;17.45;11.52;;;;;;;8.11;64.41;98248.53;4988083;28;20043;-81
2024/01/31 01:49:04;;;;;;;17.60;12.00;;;;;;;8.12;65.09;98244.97;4991595;28;20051;-82
2024/01/31 01:51:32;;;;;;;18.70;12.85;;;;;;;8.15;64.83;98239.50;4991873;28;20097;-82
2024/01/31 01:54:00;;;;;;;18.30;12.55;;;;;;;8.18;64.23;98244.47;4992011;28;20078;-82
2024/01/31 01:56:31;;;;;;;21.98;13.25;;;;;;;8.21;64.01;98246.00;4991882;28;20050;-82
2024/01/31 01:58:59;;;;;;;16.25;12.07;;;;;;;8.21;63.75;98243.41;4991488;28;20078;-81
2024/01/31 02:01:27;;;;;;;17.30;11.38;;;;;;;8.18;64.31;98241.06;4991718;28;20097;-82
2024/01/31 02:03:56;;;;;;;15.93;11.77;;;;;;;8.16;64.32;98238.59;4992584;28;20059;-81
2024/01/31 02:06:24;;;;;;;16.67;11.48;;;;;;;8.14;64.43;98235.28;4992231;28;20057;-82
2024/01/31 02:08:52;;;;;;;14.40;10.82;;;;;;;8.13;64.96;98231.00;4992579;28;20042;-82
2024/01/31 02:11:20;;;;;;;14.50;9.85;;;;;;;8.13;65.19;98228.41;4992316;28;20058;-82
2024/01/31 02:13:49;;;;;;;13.75;11.05;;;;;;;8.16;65.19;98225.59;4991501;28;20090;-82
2024/01/31 02:16:16;;;;;;;14.05;10.23;;;;;;;8.19;65.58;98225.31;4992120;28;20073;-82
2024/01/31 02:18:44;;;;;;;14.00;9.30;;;;;;;8.19;65.29;98220.13;4992787;28;20082;-82
2024/01/31 02:21:13;;;;;;;11.30;8.38;;;;;;;8.18;65.49;98222.88;4991536;28;20051;-82
2024/01/31 02:23:42;;;;;;;12.10;9.13;;;;;;;8.18;65.81;98228.88;4992037;28;20114;-82
2024/01/31 02:26:10;;;;;;;11.65;8.27;;;;;;;8.22;66.27;98221.63;4992874;28;20428;-82
2024/01/31 02:28:37;;;;;;;13.68;9.63;;;;;;;8.27;66.02;98229.09;4991103;28;20055;-81
2024/01/31 02:31:05;;;;;;;11.52;9.00;;;;;;;8.28;66.50;98228.94;4991780;28;20058;-82
2024/01/31 02:33:33;;;;;;;12.85;9.30;;;;;;;8.33;66.43;98219.00;4988982;28;20055;-83
2024/01/31 02:36:00;;;;;;;12.95;9.15;;;;;;;8.34;66.08;98215.44;4991138;28;20042;-82
2024/01/31 02:38:28;;;;;;;13.10;9.10;;;;;;;8.35;65.87;98213.66;4991927;28;20085;-82
2024/01/31 02:40:57;;;;;;;12.30;8.70;;;;;;;8.32;65.86;98208.72;4992003;28;20138;-82
2024/01/31 02:43:24;;;;;;;14.30;9.43;;;;;;;8.32;66.23;98208.72;4990786;28;20055;-82
2024/01/31 02:45:52;;;;;;;12.00;8.95;;;;;;;8.35;66.26;98205.84;4991188;28;20487;-82
2024/01/31 02:48:20;;;;;;;10.88;8.90;;;;;;;8.35;66.06;98211.03;4991308;28;20066;-81
2024/01/31 02:50:47;;;;;;;14.38;8.77;;;;;;;8.37;66.12;98214.34;4990744;28;20074;-81
2024/01/31 02:53:15;;;;;;;15.82;10.07;;;;;;;8.35;65.97;98208.44;4991168;28;20047;-82
2024/01/31 02:55:43;;;;;;;12.15;8.88;;;;;;;8.37;66.73;98203.94;4991666;28;20089;-82
2024/01/31 02:58:12;;;;;;;12.50;9.63;;;;;;;8.37;66.21;98201.34;4991141;28;20085;-82
2024/01/31 03:00:40;;;;;;;13.50;10.65;;;;;;;8.37;66.40;98202.16;4991725;28;20054;-80
2024/01/31 03:03:07;;;;;;;13.82;9.68;;;;;;;8.38;66.73;98203.00;4987291;28;20059;-81
2024/01/31 03:05:35;;;;;;;13.30;9.05;;;;;;;8.38;66.65;98197.81;4988430;28;20070;-82
2024/01/31 03:08:03;;;;;;;12.98;9.02;;;;;;;8.37;66.75;98196.16;4991348;28;20119;-82
2024/01/31 03:10:32;;;;;;;11.73;8.25;;;;;;;8.38;66.99;98195.22;5016208;22;20074;-78
2024/01/31 03:13:00;;;;;;;13.93;9.20;;;;;;;8.37;66.86;98191.75;4975179;28;20058;-84
2024/01/31 03:15:28;;;;;;;14.90;9.55;;;;;;;8.38;67.18;98200.41;4975967;28;20051;-78
2024/01/31 03:17:57;;;;;;;13.15;8.70;;;;;;;8.40;67.18;98201.09;4975891;28;20150;-84
2024/01/31 03:20:25;;;;;;;19.27;11.00;;;;;;;8.42;66.84;98194.03;4975936;28;20058;-78
2024/01/31 03:22:52;;;;;;;18.15;12.65;;;;;;;8.42;67.00;98200.06;4975540;28;20486;-83
2024/01/31 03:25:20;;;;;;;19.38;12.23;;;;;;;8.42;66.72;98194.03;4975478;28;20137;-81
2024/01/31 03:27:47;;;;;;;18.55;11.10;;;;;;;8.40;66.92;98196.75;4975041;28;20055;-82
2024/01/31 03:30:15;;;;;;;14.02;9.73;;;;;;;8.42;67.95;98200.06;4975609;28;20125;-79
2024/01/31 03:32:44;;;;;;;12.07;9.88;;;;;;;8.45;67.89;98193.75;4975051;28;20206;-78
2024/01/31 03:35:12;;;;;;;15.57;9.65;;;;;;;8.47;67.70;98196.25;4974895;28;20472;-87
2024/01/31 03:37:39;;;;;;;18.48;10.70;;;;;;;8.42;66.92;98192.25;4975014;28;20137;-82
2024/01/31 03:40:08;;;;;;;16.27;10.60;;;;;;;8.39;67.08;98199.44;4975013;28;20055;-86
2024/01/31 03:42:36;;;;;;;17.17;11.15;;;;;;;8.35;67.00;98198.03;4974431;28;20110;-80
2024/01/31 03:45:05;;;;;;;15.57;10.68;;;;;;;8.35;67.59;98195.44;4975139;28;20050;-79
2024/01/31 03:47:34;;;;;;;13.48;9.68;;;;;;;8.38;67.86;98190.00;4975114;28;20181;-78
2024/01/31 03:50:05;;;;;;;16.85;10.55;;;;;;;8.39;67.55;98187.25;4974624;28;20067;-82
2024/01/31 03:52:35;;;;;;;13.43;10.02;;;;;;;8.40;68.16;98181.16;4974661;28;20082;-79
2024/01/31 03:55:04;;;;;;;12.48;9.38;;;;;;;8.41;68.03;98187.16;4974886;28;20086;-83
2024/01/31 03:57:31;;;;;;;12.98;9.73;;;;;;;8.42;67.96;98188.84;4974852;28;20050;-87
2024/01/31 04:00:04;;;;;;;12.82;9.55;;;;;;;8.42;68.40;98187.06;4974728;28;20054;-80
2024/01/31 04:02:32;;;;;;;15.00;10.13;;;;;;;8.42;68.39;98183.63;4974665;28;20065;-81
2024/01/31 04:05:00;;;;;;;13.43;10.20;;;;;;;8.42;68.45;98184.44;4974513;28;20049;-84
2024/01/31 04:07:29;;;;;;;12.05;9.13;;;;;;;8.45;69.02;98183.34;4974332;28;20051;-78
2024/01/31 04:09:56;;;;;;;17.65;9.60;;;;;;;8.47;68.67;98191.03;4976989;28;20050;-86
2024/01/31 04:12:24;;;;;;;13.68;9.75;;;;;;;8.44;68.39;98186.94;4976541;28;20062;-83
2024/01/31 04:14:51;;;;;;;14.60;10.10;;;;;;;8.41;68.60;98181.97;4977117;28;20047;-86
2024/01/31 04:17:20;;;;;;;16.10;10.48;;;;;;;8.42;68.37;98188.84;4977216;28;20142;-80
2024/01/31 04:19:48;;;;;;;13.00;9.60;;;;;;;8.41;68.18;98192.38;4976334;28;20078;-80
2024/01/31 04:22:17;;;;;;;16.52;10.27;;;;;;;8.39;68.36;98194.25;4976279;28;20071;-81
2024/01/31 04:24:46;;;;;;;15.52;9.57;;;;;;;8.41;69.23;98201.00;4975462;28;20046;-86
2024/01/31 04:27:13;;;;;;;16.52;12.15;;;;;;;8.41;68.35;98197.56;4975867;28;20089;-81
2024/01/31 04:29:41;;;;;;;14.85;10.95;;;;;;;8.37;68.46;98202.16;4975657;28;20050;-84
2024/01/31 04:32:09;;;;;;;24.42;11.70;;;;;;;8.36;68.69;98205.72;4975359;28;20397;-82
2024/01/31 04:34:38;;;;;;;13.68;10.95;;;;;;;8.35;68.96;98211.91;4975228;28;20093;-80
2024/01/31 04:37:06;;;;;;;13.30;10.40;;;;;;;8.35;68.93;98206.69;4975176;28;20413;-79
2024/01/31 04:39:35;;;;;;;17.10;11.20;;;;;;;8.37;69.31;98211.75;4974933;28;20059;-84
2024/01/31 04:42:04;;;;;;;13.80;10.55;;;;;;;8.38;69.32;98208.22;4974514;28;20146;-80
2024/01/31 04:44:32;;;;;;;15.05;11.15;;;;;;;8.38;69.02;98213.41;4974679;28;20042;-79
2024/01/31 04:47:00;;;;;;;17.65;11.43;;;;;;;8.38;69.03;98216.00;4975180;28;20091;-80
2024/01/31 04:49:27;;;;;;;16.30;11.45;;;;;;;8.39;68.85;98215.84;4972922;28;20050;-80
2024/01/31 04:51:55;;;;;;;14.73;10.77;;;;;;;8.41;68.89;98219.19;4974493;28;20050;-77
2024/01/31 04:54:23;;;;;;;16.65;10.98;;;;;;;8.39;68.65;98217.63;4974484;28;20130;-81
2024/01/31 04:56:50;;;;;;;18.65;11.38;;;;;;;8.39;68.74;98209.84;4974821;28;20133;-77
2024/01/31 04:59:19;;;;;;;20.50;11.82;;;;;;;8.38;68.83;98224.63;4965799;28;20137;-79
2024/01/31 05:01:47;;;;;;;16.15;11.05;;;;;;;8.39;68.99;98222.84;4957066;28;20134;-79
2024/01/31 05:04:14;;;;;;;14.27;10.35;;;;;;;8.39;69.29;98215.84;4967197;28;20088;-78
2024/01/31 05:06:42;;;;;;;16.98;10.45;;;;;;;8.41;69.31;98228.78;4976716;28;20058;-77
2024/01/31 05:09:09;;;;;;;17.60;11.50;;;;;;;8.41;69.23;98219.19;4964321;28;20082;-79
2024/01/31 05:11:37;;;;;;;16.13;11.15;;;;;;;8.40;69.29;98227.97;4958709;28;20079;-77
2024/01/31 05:14:05;;;;;;;16.48;11.32;;;;;;;8.40;69.36;98232.31;4961324;28;20094;-79
2024/01/31 05:16:38;;;;;;;14.48;12.15;;;;;;;8.39;69.84;98225.44;4972444;28;20508;-79
2024/01/31 05:19:08;;;;;;;19.17;12.23;;;;;;;8.39;69.79;98236.66;4964226;28;20138;-77
2024/01/31 05:21:36;;;;;;;20.85;11.95;;;;;;;8.40;69.62;98229.72;4958532;28;20053;-78
2024/01/31 05:24:04;;;;;;;23.65;13.65;;;;;;;8.39;69.96;98241.03;4958514;28;20572;-77
2024/01/31 05:26:31;;;;;;;18.92;12.35;;;;;;;8.39;70.23;98244.47;4958568;28;20129;-79
2024/01/31 05:28:59;;;;;;;18.75;12.57;;;;;;;8.38;70.36;98240.22;4959618;28;20059;-79
2024/01/31 05:31:26;;;;;;;19.50;13.25;;;;;;;8.41;70.38;98249.56;4972562;28;20117;-80
2024/01/31 05:33:55;;;;;;;22.05;13.82;;;;;;;8.42;70.72;98243.44;4977937;28;20061;-81
2024/01/31 05:36:23;;;;;;;20.33;13.50;;;;;;;8.45;70.49;98248.38;4977107;28;20097;-76
2024/01/31 05:38:51;;;;;;;20.38;11.98;;;;;;;8.45;70.30;98245.78;4977483;28;20531;-77
2024/01/31 05:41:18;;;;;;;22.20;15.10;;;;;;;8.46;70.34;98247.41;4975391;28;20494;-76
2024/01/31 05:43:46;;;;;;;24.55;14.70;;;;;;;8.46;70.55;98250.00;4976499;28;20143;-79
2024/01/31 05:46:15;;;;;;;21.95;14.00;;;;;;;8.47;70.29;98249.06;4974619;28;20054;-80
2024/01/31 05:48:43;;;;;;;27.63;14.10;;;;;;;8.46;70.32;98250.00;4958395;28;20110;-78
2024/01/31 05:51:12;;;;;;;20.48;13.00;;;;;;;8.46;70.62;98247.41;4962152;28;20039;-80
2024/01/31 05:53:40;;;;;;;18.42;12.98;;;;;;;8.44;70.43;98249.34;4964662;28;20051;-80
2024/01/31 05:56:08;;;;;;;21.27;12.02;;;;;;;8.45;70.81;98246.59;4958297;28;20137;-79
2024/01/31 05:58:35;;;;;;;15.82;11.80;;;;;;;8.46;70.66;98252.59;4958406;28;20051;-81
2024/01/31 06:01:03;;;;;;;14.02;10.98;;;;;;;8.44;70.95;98250.16;4959417;28;20633;-81
2024/01/31 06:03:31;;;;;;;18.27;11.60;;;;;;;8.47;71.04;98248.25;4960312;28;20047;-84
2024/01/31 06:05:58;;;;;;;18.83;12.30;;;;;;;8.47;70.90;98249.06;4966302;28;20049;-82
2024/01/31 06:08:27;;;;;;;20.55;13.30;;;;;;;8.48;71.23;98250.72;4960699;28;20484;-83
2024/01/31 06:11:02;;;;;;;15.25;11.65;;;;;;;8.50;71.12;98248.00;4966862;28;20051;-84
2024/01/31 06:13:30;;;;;;;19.60;12.98;;;;;;;8.50;70.96;98248.81;4979150;28;20047;-78
2024/01/31 06:15:58;;;;;;;18.13;12.07;;;;;;;8.50;71.23;98250.59;4974110;28;20039;-83
2024/01/31 06:18:26;;;;;;;22.08;12.70;;;;;;;8.49;71.53;98252.38;4962145;29;20066;-82
2024/01/31 06:20:53;;;;;;;17.67;12.77;;;;;;;8.49;71.40;98252.38;4961839;28;20055;-80
2024/01/31 06:23:21;;;;;;;19.67;13.95;;;;;;;8.47;71.40;98249.06;4959530;28;20051;-79
2024/01/31 06:25:51;;;;;;;17.30;12.35;;;;;;;8.47;71.77;98248.25;4960354;28;20110;-82
2024/01/31 06:28:19;;;;;;;21.48;12.88;;;;;;;8.45;71.54;98251.78;4959932;28;20500;-79
2024/01/31 06:30:53;;;;;;;21.70;13.63;;;;;;;8.47;71.78;98253.47;4961510;28;20047;-79
2024/01/31 06:33:27;;;;;;;19.55;12.70;;;;;;;8.47;71.75;98262.06;4959236;28;20085;-80
2024/01/31 06:35:55;;;;;;;23.58;14.98;;;;;;;8.47;71.57;98254.28;4957676;28;20047;-81
2024/01/31 06:38:22;;;;;;;20.92;14.30;;;;;;;8.49;71.47;98261.97;4959760;28;20043;-84
2024/01/31 06:40:51;;;;;;;23.45;14.40;;;;;;;8.51;71.51;98260.06;4956821;29;20090;-77
2024/01/31 06:43:19;;;;;;;24.35;16.35;;;;;;;8.51;70.92;98257.44;4958246;28;20077;-79
2024/01/31 06:45:47;;;;;;;19.05;14.40;;;;;;;8.50;70.95;98269.59;4957905;28;20059;-80
2024/01/31 06:48:15;;;;;;;19.85;14.10;;;;;;;8.52;71.27;98270.31;4966703;28;20066;-78
2024/01/31 06:50:42;;;;;;;25.25;15.98;;;;;;;8.50;70.69;98271.41;4969551;28;20074;-79
2024/01/31 06:53:13;;;;;;;25.55;16.42;;;;;;;8.50;71.54;98269.59;4976263;28;20077;-81
2024/01/31 06:55:41;;;;;;;31.83;19.50;;;;;;;8.52;70.73;98275.50;4963571;28;20130;-78
2024/01/31 06:58:10;;;;;;;27.98;18.45;;;;;;;8.50;70.48;98269.59;4971310;28;20457;-78
2024/01/31 07:00:38;;;;;;;26.15;18.55;;;;;;;8.48;70.65;98271.50;4968869;28;20051;-77
2024/01/31 07:03:06;;;;;;;26.58;18.65;;;;;;;8.45;70.95;98280.41;4965377;28;20130;-79
2024/01/31 07:05:33;;;;;;;29.50;19.38;;;;;;;8.45;70.83;98279.59;4973539;28;20082;-81
2024/01/31 07:08:01;;;;;;;27.33;18.63;;;;;;;8.44;70.76;98278.75;4968386;28;20061;-80
2024/01/31 07:10:29;;;;;;;24.67;17.17;;;;;;;8.44;71.33;98291.75;4968999;28;20210;-79
2024/01/31 07:12:57;;;;;;;26.42;17.05;;;;;;;8.47;71.57;98277.69;4958085;29;20158;-77
2024/01/31 07:15:26;;;;;;;29.25;19.05;;;;;;;8.49;71.55;98283.59;4970180;28;20055;-79
2024/01/31 07:17:53;;;;;;;25.70;18.08;;;;;;;8.50;71.11;98287.81;4976346;28;20082;-83
2024/01/31 07:20:21;;;;;;;23.10;16.15;;;;;;;8.49;71.44;98286.19;4977399;28;20071;-83
2024/01/31 07:22:48;;;;;;;23.05;16.38;;;;;;;8.50;71.44;98280.00;4976605;28;20050;-82
2024/01/31 07:25:16;;;;;;;24.40;16.15;;;;;;;8.51;71.56;98289.47;4965395;28;20062;-78
2024/01/31 07:27:44;;;;;;;22.33;15.77;;;;;;;8.53;71.49;98282.38;4963920;28;20134;-80
2024/01/31 07:30:12;;;;;;;28.20;15.88;;;;;;;8.57;71.77;98282.94;4960192;28;20047;-79
2024/01/31 07:32:41;;;;;;;20.33;15.00;;;;;;;8.61;71.81;98292.94;4963459;28;20130;-82
2024/01/31 07:35:09;;;;;;;21.23;15.50;;;;;;;8.63;71.67;98290.22;4958502;28;20525;-80
2024/01/31 07:37:37;;;;;;;23.30;14.88;;;;;;;8.66;71.76;98285.59;4959900;28;20054;-79
2024/01/31 07:40:06;;;;;;;16.38;12.90;;;;;;;8.69;71.70;98283.69;4960385;28;20051;-77
2024/01/31 07:42:34;;;;;;;19.33;14.23;;;;;;;8.71;71.75;98289.59;4959960;28;20130;-81
2024/01/31 07:45:05;;;;;;;19.08;13.70;;;;;;;8.70;72.04;98291.34;4960851;28;20142;-82
2024/01/31 07:47:35;;;;;;;19.45;13.23;;;;;;;8.69;72.02;98283.69;4960737;28;20142;-79
2024/01/31 07:50:06;;;;;;;17.58;11.48;;;;;;;8.66;72.56;98282.19;4972441;28;20058;-79
2024/01/31 07:52:34;;;;;;;16.45;12.32;;;;;;;8.67;72.34;98283.81;4972478;28;20484;-77
2024/01/31 07:55:01;;;;;;;13.23;11.35;;;;;;;8.69;72.53;98284.53;4956231;28;20057;-79
2024/01/31 07:57:29;;;;;;;19.33;13.10;;;;;;;8.69;72.38;98278.50;4958026;28;20055;-78
2024/01/31 07:59:56;;;;;;;16.20;12.27;;;;;;;8.65;72.42;98270.13;4957817;28;20114;-79
2024/01/31 08:02:24;;;;;;;18.23;12.60;;;;;;;8.63;72.55;98270.22;4962795;28;20066;-77
2024/01/31 08:04:54;;;;;;;16.75;12.85;;;;;;;8.61;72.67;98272.13;4956245;28;20058;-77
2024/01/31 08:07:23;;;;;;;23.88;14.00;;;;;;;8.58;73.03;98264.59;4973940;28;20078;-83
2024/01/31 08:09:51;;;;;;;19.27;13.75;;;;;;;8.57;72.96;98270.78;4983329;28;20047;-84
2024/01/31 08:12:19;;;;;;;20.83;13.63;;;;;;;8.53;72.91;98264.19;4990539;28;20122;-82
2024/01/31 08:14:46;;;;;;;22.30;13.57;;;;;;;8.51;73.23;98258.28;4968107;28;20110;-83
2024/01/31 08:17:14;;;;;;;19.80;12.98;;;;;;;8.51;73.27;98266.06;4961835;28;20079;-82
2024/01/31 08:19:41;;;;;;;16.33;11.50;;;;;;;8.55;73.08;98262.28;4957280;29;20051;-81
2024/01/31 08:22:09;;;;;;;16.17;10.77;;;;;;;8.57;72.81;98270.78;4957166;29;20051;-81
2024/01/31 08:24:38;;;;;;;15.75;10.85;;;;;;;8.58;73.17;98267.19;4958737;28;20039;-82
2024/01/31 08:27:06;;;;;;;13.50;10.60;;;;;;;8.59;73.17;98268.88;4955940;28;20049;-76
2024/01/31 08:29:33;;;;;;;17.50;11.60;;;;;;;8.57;72.73;98264.72;4966785;28;20162;-82
2024/01/31 08:32:01;;;;;;;16.08;10.73;;;;;;;8.54;73.08;98265.81;4975220;28;20046;-79
2024/01/31 08:34:28;;;;;;;16.48;11.13;;;;;;;8.56;73.26;98273.50;4975825;28;20082;-78
2024/01/31 08:36:59;;;;;;;20.73;13.60;;;;;;;8.58;73.09;98262.00;4978668;28;20051;-80
2024/01/31 08:39:29;;;;;;;18.65;13.35;;;;;;;8.58;73.15;98276.78;4979912;28;20065;-80
2024/01/31 08:41:58;;;;;;;20.55;13.13;;;;;;;8.58;73.18;98277.59;4979554;28;20531;-79
2024/01/31 08:44:27;;;;;;;16.02;12.32;;;;;;;8.59;72.97;98274.06;4970347;28;20052;-81
2024/01/31 08:46:54;;;;;;;21.48;13.57;;;;;;;8.59;73.17;98275.81;4961047;28;20047;-82
2024/01/31 08:49:42;;;;;;;19.63;12.25;;;;;;;8.58;73.09;98271.59;4959416;28;20059;-77
2024/01/31 08:52:09;;;;;;;15.82;11.82;;;;;;;8.60;73.09;98267.91;4971179;28;20468;-82
2024/01/31 08:54:37;;;;;;;25.45;12.40;;;;;;;8.63;73.25;98269.41;4979378;28;20086;-78
2024/01/31 08:57:06;;;;;;;18.75;11.77;;;;;;;8.67;73.50;98270.81;4978718;28;20497;-76
2024/01/31 08:59:33;;;;;;;16.92;11.73;;;;;;;8.72;73.07;98273.03;4978150;28;20053;-76
2024/01/31 09:02:01;;;;;;;15.82;12.05;;;;;;;8.75;73.11;98270.19;4978251;28;20082;-76
2024/01/31 09:04:29;;;;;;;18.33;12.70;;;;;;;8.78;73.00;98275.13;4978257;28;20501;-78
2024/01/31 09:06:56;;;;;;;19.08;12.40;;;;;;;8.78;72.75;98282.94;4979019;28;20415;-80
2024/01/31 09:09:24;;;;;;;14.55;11.95;;;;;;;8.79;72.84;98279.34;4975162;28;20058;-79
2024/01/31 09:11:52;;;;;;;17.80;12.05;;;;;;;8.81;72.60;98275.69;5009176;23;20062;-77
2024/01/31 09:14:21;;;;;;;14.35;10.68;;;;;;;8.83;72.55;98286.81;5016352;28;20054;-77
2024/01/31 09:16:48;;;;;;;20.45;12.02;;;;;;;8.83;72.46;98275.53;5016377;28;20046;-80
2024/01/31 09:19:16;;;;;;;15.48;11.38;;;;;;;8.86;72.88;98283.94;5016349;28;20133;-80
2024/01/31 09:21:44;;;;;;;14.98;10.93;;;;;;;8.93;72.73;98286.00;5016456;28;20482;-80
2024/01/31 09:24:11;;;;;;;15.88;11.07;;;;;;;8.95;72.68;98286.72;5001927;28;20108;-80
2024/01/31 09:26:39;;;;;;;13.02;9.85;;;;;;;8.99;72.61;98277.69;4996449;28;20057;-80
2024/01/31 09:29:06;;;;;;;14.57;10.27;;;;;;;9.02;72.76;98270.44;4999214;28;20102;-80
2024/01/31 09:31:35;;;;;;;12.57;9.90;;;;;;;9.03;73.03;98269.50;5003543;28;20050;-80
2024/01/31 09:34:03;;;;;;;12.32;9.48;;;;;;;9.05;73.04;98259.78;4996212;28;20050;-80
2024/01/31 09:36:31;;;;;;;16.33;10.23;;;;;;;9.06;73.18;98265.81;5009655;28;20056;-80
2024/01/31 09:38:58;;;;;;;13.18;10.32;;;;;;;9.10;73.01;98261.16;5020213;28;20042;-80
2024/01/31 09:41:26;;;;;;;14.02;9.85;;;;;;;9.16;73.40;98271.88;5000823;28;20141;-79
2024/01/31 09:43:55;;;;;;;14.15;10.50;;;;;;;9.22;72.79;98270.50;5002388;28;20054;-79
2024/01/31 09:46:23;;;;;;;11.95;9.45;;;;;;;9.24;73.07;98273.81;5010719;28;20113;-79
2024/01/31 09:48:52;;;;;;;14.27;9.77;;;;;;;9.31;73.16;98274.91;5007017;28;20042;-80
2024/01/31 09:51:21;;;;;;;16.25;11.13;;;;;;;9.36;73.30;98275.38;4996880;28;20046;-80
2024/01/31 09:53:52;;;;;;;11.25;8.75;;;;;;;9.41;72.99;98278.38;4995989;28;20042;-80
2024/01/31 09:56:21;;;;;;;16.60;10.75;;;;;;;9.46;72.88;98263.16;4995637;28;20096;-80
2024/01/31 09:58:48;;;;;;;13.60;9.38;;;;;;;9.52;72.67;98274.03;4995369;28;20049;-80
2024/01/31 10:01:20;;;;;;;11.40;9.50;;;;;;;9.56;72.69;98272.81;4995272;28;20132;-80
2024/01/31 10:03:59;;;;;;;17.20;10.48;;;;;;;9.63;72.68;98263.50;4995629;28;20141;-79
2024/01/31 10:06:28;;;;;;;17.00;10.32;;;;;;;9.68;72.51;98262.09;4995885;28;20050;-80
2024/01/31 10:08:56;;;;;;;15.52;10.35;;;;;;;9.74;72.14;98265.16;4997330;28;20125;-79
2024/01/31 10:11:25;;;;;;;12.27;10.15;;;;;;;9.82;72.33;98260.91;4998406;28;20053;-80
2024/01/31 10:13:53;;;;;;;12.23;10.07;;;;;;;9.93;72.29;98259.09;4995257;28;20089;-80
2024/01/31 10:16:21;;;;;;;12.13;9.70;;;;;;;10.03;72.03;98257.34;4995361;28;20054;-80
2024/01/31 10:18:49;;;;;;;14.30;10.23;;;;;;;10.13;71.72;98245.13;4994915;28;20050;-79
2024/01/31 10:21:19;;;;;;;18.05;10.73;;;;;;;10.21;71.55;98242.66;4994956;28;20467;-80
2024/01/31 10:23:56;;;;;;;14.60;9.48;;;;;;;10.33;71.44;98237.31;4995119;28;20097;-80
2024/01/31 10:26:24;;;;;;;13.40;9.82;;;;;;;10.48;71.21;98230.69;4995225;28;20543;-80
2024/01/31 10:28:52;;;;;;;15.50;10.68;;;;;;;10.59;70.81;98243.56;5005405;28;20128;-80
2024/01/31 10:31:36;;;;;;;14.27;10.13;;;;;;;10.67;70.43;98233.25;5014099;28;20147;-80
2024/01/31 10:34:04;;;;;;;12.60;9.93;;;;;;;10.77;70.22;98235.81;5014193;28;20124;-80
2024/01/31 10:36:34;;;;;;;12.63;9.98;;;;;;;10.89;69.66;98226.03;5014748;28;20152;-80
2024/01/31 10:39:09;;;;;;;12.88;10.10;;;;;;;10.98;69.57;98219.97;5013607;28;20133;-80
2024/01/31 10:41:38;;;;;;;16.00;10.63;;;;;;;11.07;69.04;98221.69;5002674;28;20689;-80
2024/01/31 10:44:10;;;;;;;18.25;11.15;;;;;;;11.16;68.22;98227.84;5004574;28;20116;-80
2024/01/31 10:46:39;;;;;;;15.07;11.00;;;;;;;11.19;68.31;98222.31;5011128;28;20077;-80
2024/01/31 10:49:07;;;;;;;12.60;10.05;;;;;;;11.24;67.89;98229.69;5014363;28;20474;-80
2024/01/31 10:51:38;;;;;;;12.93;10.30;;;;;;;11.21;67.26;98225.59;5014079;28;20507;-80
2024/01/31 10:54:08;;;;;;;15.68;10.10;;;;;;;11.17;67.27;98223.44;5012635;28;20133;-80
2024/01/31 10:56:37;;;;;;;15.45;11.10;;;;;;;11.13;67.17;98228.13;4998023;28;20435;-79
2024/01/31 10:59:06;;;;;;;15.35;9.60;;;;;;;11.11;68.07;98224.84;4993616;28;20053;-80
2024/01/31 11:01:34;;;;;;;14.32;10.65;;;;;;;11.12;68.06;98224.69;5005151;28;20050;-80
2024/01/31 11:04:03;;;;;;;13.00;10.05;;;;;;;11.12;68.25;98226.47;5012641;28;20100;-80
2024/01/31 11:06:41;;;;;;;15.82;11.05;;;;;;;11.12;68.22;98222.06;5012250;28;20085;-80
2024/01/31 11:09:17;;;;;;;15.98;10.95;;;;;;;11.10;68.07;98217.97;5014325;28;20108;-80
2024/01/31 11:11:45;;;;;;;14.70;11.25;;;;;;;11.07;68.41;98213.84;5010048;28;20141;-81
2024/01/31 11:14:14;;;;;;;12.13;9.90;;;;;;;11.04;68.98;98211.56;4994039;28;20054;-80
2024/01/31 11:16:42;;;;;;;15.05;11.32;;;;;;;11.03;68.44;98207.28;5006923;28;20049;-80
2024/01/31 11:19:20;;;;;;;16.02;11.68;;;;;;;11.00;68.71;98212.81;5013890;28;20076;-80
2024/01/31 11:21:48;;;;;;;16.30;12.27;;;;;;;10.98;68.44;98203.47;5002159;28;20042;-80
2024/01/31 11:24:17;;;;;;;13.98;11.75;;;;;;;10.99;68.73;98210.31;4997261;28;20166;-81
2024/01/31 11:26:44;;;;;;;15.60;11.85;;;;;;;11.00;68.61;98202.34;4998573;28;20418;-81
2024/01/31 11:29:13;;;;;;;13.57;10.00;;;;;;;11.01;68.92;98203.16;5020965;28;20121;-81
2024/01/31 11:31:40;;;;;;;13.80;10.45;;;;;;;11.03;68.88;98204.66;5035218;28;20038;-79